createdAt,value
2023-03-02T00:02:17.382Z,83.67
2023-03-02T00:04:53.523Z,91.70
2023-03-02T00:07:32.598Z,82.70
2023-03-02T00:10:00.147Z,87.77
2023-03-02T00:12:29.439Z,83.67
2023-03-02T00:14:56.743Z,83.67
2023-03-02T00:17:27.936Z,87.50
2023-03-02T00:20:10.332Z,85.93
2023-03-02T00:22:43.904Z,83.00
2023-03-02T00:25:13.837Z,80.03
2023-03-02T00:27:41.484Z,85.23
2023-03-02T00:30:10.630Z,86.37
2023-03-02T00:32:38.369Z,89.97
2023-03-02T00:35:06.381Z,85.37
2023-03-02T00:37:36.198Z,86.37
2023-03-02T00:40:09.772Z,81.33
2023-03-02T00:42:40.116Z,82.30
2023-03-02T00:45:08.048Z,91.37
2023-03-02T00:47:37.361Z,87.70
2023-03-02T00:50:06.578Z,87.60
2023-03-02T00:52:34.451Z,85.20
2023-03-02T00:55:05.217Z,82.80
2023-03-02T00:57:32.347Z,89.27
2023-03-02T00:59:59.921Z,86.97
2023-03-02T01:02:30.276Z,102.67
2023-03-02T01:04:57.721Z,83.90
2023-03-02T01:07:26.262Z,88.60
2023-03-02T01:09:53.432Z,87.77
2023-03-02T01:12:20.678Z,93.93
2023-03-02T01:14:50.841Z,76.13
2023-03-02T01:17:18.089Z,89.07
2023-03-02T01:19:45.733Z,86.03
2023-03-02T01:22:12.955Z,91.03
2023-03-02T01:24:40.098Z,85.43
2023-03-02T01:27:07.540Z,88.00
2023-03-02T01:29:34.669Z,78.63
2023-03-02T01:32:02.211Z,91.67
2023-03-02T01:34:29.475Z,77.10
2023-03-02T01:36:56.887Z,86.10
2023-03-02T01:39:23.976Z,84.90
2023-03-02T01:41:52.986Z,89.23
2023-03-02T01:44:43.073Z,80.20
2023-03-02T01:47:23.367Z,84.10
2023-03-02T01:50:01.893Z,79.47
2023-03-02T01:52:33.438Z,88.57
2023-03-02T01:55:06.409Z,77.77
2023-03-02T01:57:43.872Z,75.13
2023-03-02T02:00:27.360Z,79.60
2023-03-02T02:03:08.745Z,81.93
2023-03-02T02:05:42.229Z,81.33
2023-03-02T02:08:09.875Z,79.53
2023-03-02T02:10:37.497Z,77.87
2023-03-02T02:13:11.432Z,82.47
2023-03-02T02:15:40.496Z,79.60
2023-03-02T02:18:08.020Z,77.77
2023-03-02T02:20:45.344Z,72.60
2023-03-02T02:23:28.492Z,70.03
2023-03-02T02:26:23.886Z,68.23
2023-03-02T02:29:07.891Z,66.07
2023-03-02T02:31:35.951Z,77.33
2023-03-02T02:34:10.773Z,70.90
2023-03-02T02:36:45.144Z,72.67
2023-03-02T02:39:23.790Z,72.90
2023-03-02T02:41:55.158Z,71.27
2023-03-02T02:44:22.593Z,78.77
2023-03-02T02:46:49.738Z,73.83
2023-03-02T02:49:39.230Z,71.37
2023-03-02T02:52:07.365Z,69.03
2023-03-02T02:54:37.090Z,72.70
2023-03-02T02:57:05.348Z,66.73
2023-03-02T02:59:39.915Z,81.13
2023-03-02T03:02:07.226Z,76.03
2023-03-02T03:04:34.862Z,78.70
2023-03-02T03:07:06.702Z,74.93
2023-03-02T03:09:36.956Z,72.63
2023-03-02T03:12:26.104Z,68.67
2023-03-02T03:14:53.976Z,69.57
2023-03-02T03:17:21.437Z,83.63
2023-03-02T03:19:48.566Z,70.83
2023-03-02T03:22:17.413Z,71.33
2023-03-02T03:24:46.128Z,74.10
2023-03-02T03:27:16.200Z,77.43
2023-03-02T03:29:48.133Z,72.20
2023-03-02T03:32:15.571Z,78.57
2023-03-02T03:34:43.238Z,76.90
2023-03-02T03:37:13.698Z,73.27
2023-03-02T03:39:41.297Z,72.47
2023-03-02T03:42:08.757Z,68.30
2023-03-02T03:44:36.364Z,79.63
2023-03-02T03:47:03.729Z,73.30
2023-03-02T03:49:33.718Z,61.70
2023-03-02T03:52:00.854Z,72.30
2023-03-02T03:54:28.132Z,70.87
2023-03-02T03:56:55.704Z,71.27
2023-03-02T03:59:25.524Z,67.03
2023-03-02T04:02:00.091Z,66.03
2023-03-02T04:04:32.456Z,71.00
2023-03-02T04:07:02.740Z,70.65
2023-03-02T04:09:32.319Z,70.67
2023-03-02T04:12:02.764Z,67.23
2023-03-02T04:14:30.393Z,70.27
2023-03-02T04:16:57.764Z,67.83
2023-03-02T04:19:25.882Z,69.70
2023-03-02T04:21:55.439Z,65.30
2023-03-02T04:24:24.095Z,65.83
2023-03-02T04:26:51.854Z,68.60
2023-03-02T04:29:19.228Z,70.50
2023-03-02T04:31:48.376Z,65.20
2023-03-02T04:34:15.821Z,71.50
2023-03-02T04:36:43.355Z,66.00
2023-03-02T04:39:13.848Z,67.70
2023-03-02T04:41:40.980Z,68.67
2023-03-02T04:44:15.105Z,73.00
2023-03-02T04:46:44.770Z,67.40
2023-03-02T04:49:18.312Z,71.73
2023-03-02T04:51:47.555Z,73.10
2023-03-02T04:54:20.910Z,78.50
2023-03-02T04:56:51.734Z,71.10
2023-03-02T04:59:24.022Z,73.80
2023-03-02T05:01:51.599Z,72.57
2023-03-02T05:04:19.147Z,71.73
2023-03-02T05:06:49.924Z,68.17
2023-03-02T05:09:17.123Z,63.53
2023-03-02T05:11:44.396Z,71.97
2023-03-02T05:14:13.263Z,64.93
2023-03-02T05:16:42.416Z,63.50
2023-03-02T05:19:13.632Z,69.37
2023-03-02T05:21:41.873Z,64.23
2023-03-02T05:24:09.357Z,68.20
2023-03-02T05:26:37.017Z,68.63
2023-03-02T05:29:04.627Z,71.27
2023-03-02T05:31:35.985Z,68.97
2023-03-02T05:34:06.452Z,71.33
2023-03-02T05:36:34.662Z,75.00
2023-03-02T05:39:02.388Z,75.50
2023-03-02T05:41:29.677Z,71.27
2023-03-02T05:43:57.403Z,69.47
2023-03-02T05:46:24.842Z,71.37
2023-03-02T05:48:51.985Z,72.93
2023-03-02T05:51:19.332Z,76.57
2023-03-02T05:53:46.727Z,73.30
2023-03-02T05:56:13.882Z,67.93
2023-03-02T05:58:41.137Z,72.13
2023-03-02T06:01:12.684Z,77.57
2023-03-02T06:03:42.806Z,77.90
2023-03-02T06:06:14.358Z,86.20
2023-03-02T06:08:43.338Z,87.70
2023-03-02T06:11:11.943Z,90.23
2023-03-02T06:13:42.134Z,81.60
2023-03-02T06:16:09.719Z,84.40
2023-03-02T06:18:41.546Z,89.97
2023-03-02T06:21:09.325Z,86.53
2023-03-02T06:23:36.654Z,79.83
2023-03-02T06:26:10.365Z,77.37
2023-03-02T06:28:51.619Z,83.10
2023-03-02T06:31:19.891Z,86.73
2023-03-02T06:33:47.028Z,98.63
2023-03-02T06:36:15.199Z,87.00
2023-03-02T06:38:42.394Z,90.17
2023-03-02T06:41:10.036Z,94.83
2023-03-02T06:43:37.423Z,88.00
2023-03-02T06:46:04.848Z,78.87
2023-03-02T06:48:31.988Z,76.47
2023-03-02T06:50:59.479Z,78.97
2023-03-02T06:53:27.272Z,88.60
2023-03-02T06:55:54.419Z,77.50
2023-03-02T06:58:21.626Z,72.87
2023-03-02T07:00:48.883Z,77.60
2023-03-02T07:03:17.443Z,76.90
2023-03-02T07:05:46.334Z,86.50
2023-03-02T07:08:13.713Z,85.40
2023-03-02T07:10:44.348Z,75.23
2023-03-02T07:13:11.496Z,83.63
2023-03-02T07:15:41.687Z,71.73
2023-03-02T07:18:08.835Z,82.87
2023-03-02T07:20:39.571Z,78.67
2023-03-02T07:23:07.260Z,83.00
2023-03-02T07:25:37.422Z,75.70
2023-03-02T07:28:04.960Z,72.40
2023-03-02T07:30:32.159Z,78.37
2023-03-02T07:33:02.510Z,79.87
2023-03-02T07:35:29.691Z,78.87
2023-03-02T07:37:56.795Z,81.97
2023-03-02T07:40:27.437Z,114.00
2023-03-02T07:42:54.707Z,81.43
2023-03-02T07:45:24.912Z,80.13
2023-03-02T07:47:52.249Z,73.13
2023-03-02T07:50:19.614Z,80.27
2023-03-02T07:52:50.436Z,73.30
2023-03-02T07:55:17.753Z,79.13
2023-03-02T07:57:47.514Z,75.63
2023-03-02T08:00:15.675Z,76.93
2023-03-02T08:02:43.180Z,81.47
2023-03-02T08:05:12.258Z,84.20
2023-03-02T08:07:40.636Z,72.37
2023-03-02T08:10:08.770Z,78.13
2023-03-02T08:12:36.524Z,78.80
2023-03-02T08:15:05.106Z,76.20
2023-03-02T08:17:32.598Z,77.03
2023-03-02T08:19:59.833Z,83.37
2023-03-02T08:22:27.015Z,73.37
2023-03-02T08:24:57.395Z,84.23
2023-03-02T08:27:24.888Z,79.17
2023-03-02T08:29:54.178Z,73.17
2023-03-02T08:32:21.672Z,78.93
2023-03-02T08:34:51.803Z,76.38
2023-03-02T08:37:22.124Z,73.27
2023-03-02T08:39:49.454Z,72.67
2023-03-02T08:42:19.738Z,80.47
2023-03-02T08:44:46.960Z,80.87
2023-03-02T08:47:16.747Z,83.27
2023-03-02T08:49:44.385Z,80.33
2023-03-02T08:52:15.228Z,85.90
2023-03-02T08:54:42.773Z,82.00
2023-03-02T08:57:12.430Z,77.75
2023-03-02T08:59:39.973Z,76.95
2023-03-02T09:02:07.918Z,72.75
2023-03-02T09:04:41.576Z,74.72
2023-03-02T09:07:10.004Z,81.22
2023-03-02T09:09:40.753Z,64.45
2023-03-02T09:12:10.809Z,79.18
2023-03-02T09:14:38.190Z,74.80
2023-03-02T09:17:05.754Z,76.95
2023-03-02T09:19:43.236Z,74.63
2023-03-02T09:22:11.601Z,74.82
2023-03-02T09:24:38.977Z,75.88
2023-03-02T09:27:06.180Z,81.40
2023-03-02T09:29:33.479Z,77.55
2023-03-02T09:32:00.795Z,76.82
2023-03-02T09:34:31.322Z,70.80
2023-03-02T09:36:58.479Z,79.80
2023-03-02T09:39:25.579Z,71.32
2023-03-02T09:42:16.312Z,72.90
2023-03-02T09:45:24.036Z,79.10
2023-03-02T09:48:34.361Z,71.47
2023-03-02T09:51:31.460Z,68.38
2023-03-02T09:54:19.639Z,65.15
2023-03-02T09:56:56.027Z,61.75
2023-03-02T09:59:51.835Z,68.97
2023-03-02T10:02:50.461Z,72.50
2023-03-02T10:05:29.361Z,66.93
2023-03-02T10:08:00.837Z,53.78
2023-03-02T10:11:22.468Z,64.45
2023-03-02T10:14:17.931Z,63.38
2023-03-02T10:17:07.956Z,62.13
2023-03-02T10:19:44.399Z,59.47
2023-03-02T10:22:24.065Z,58.67
2023-03-02T10:25:22.922Z,59.65
2023-03-02T10:28:05.685Z,60.40
2023-03-02T10:30:38.616Z,63.85
2023-03-02T10:33:17.782Z,59.85
2023-03-02T10:35:52.010Z,59.35
2023-03-02T10:38:25.250Z,65.22
2023-03-02T10:41:03.636Z,58.58
2023-03-02T10:43:52.699Z,67.40
2023-03-02T10:46:20.506Z,62.00
2023-03-02T10:49:01.278Z,55.83
2023-03-02T10:51:37.563Z,50.95
2023-03-02T10:54:13.603Z,56.95
2023-03-02T10:56:52.119Z,54.85
2023-03-02T10:59:44.970Z,51.75
2023-03-02T11:02:24.794Z,57.83
2023-03-02T11:04:57.646Z,53.97
2023-03-02T11:07:29.489Z,57.97
2023-03-02T11:10:19.274Z,51.70
2023-03-02T11:12:50.482Z,54.28
2023-03-02T11:15:32.669Z,54.72
2023-03-02T11:18:22.592Z,48.78
2023-03-02T11:20:56.996Z,52.95
2023-03-02T11:23:43.763Z,48.00
2023-03-02T11:26:30.973Z,45.05
2023-03-02T11:29:12.066Z,44.45
2023-03-02T11:31:52.285Z,45.17
2023-03-02T11:34:40.664Z,42.28
2023-03-02T11:37:23.608Z,42.10
2023-03-02T11:40:09.104Z,48.05
2023-03-02T11:42:44.886Z,53.50
2023-03-02T11:48:29.284Z,45.40
2023-03-02T11:51:01.043Z,45.25
2023-03-02T11:53:57.509Z,45.33
2023-03-02T11:59:02.328Z,46.72
2023-03-02T12:01:32.056Z,45.10
2023-03-02T12:04:35.032Z,42.58
2023-03-02T12:07:22.976Z,46.90
2023-03-02T12:10:31.319Z,39.55
2023-03-02T12:13:18.358Z,40.38
2023-03-02T12:15:50.979Z,40.45
2023-03-02T12:18:21.144Z,36.92
2023-03-02T12:21:11.775Z,43.50
2023-03-02T12:23:58.308Z,39.63
2023-03-02T12:26:35.330Z,34.80
2023-03-02T12:29:13.907Z,38.25
2023-03-02T12:31:56.402Z,39.33
2023-03-02T12:34:38.296Z,42.30
2023-03-02T12:37:57.063Z,39.45
2023-03-02T12:40:56.565Z,32.50
2023-03-02T12:43:33.735Z,32.97
2023-03-02T12:46:34.306Z,36.60
2023-03-02T12:49:22.214Z,41.08
2023-03-02T12:52:01.992Z,35.88
2023-03-02T12:54:34.674Z,33.33
2023-03-02T12:57:19.457Z,37.17
2023-03-02T12:59:59.269Z,37.53
2023-03-02T13:02:36.888Z,32.03
2023-03-02T13:05:08.613Z,33.33
2023-03-02T13:07:58.714Z,36.33
2023-03-02T13:10:49.081Z,33.45
2023-03-02T13:13:43.546Z,34.38
2023-03-02T13:16:25.453Z,41.58
2023-03-02T13:19:16.626Z,31.80
2023-03-02T13:21:44.012Z,35.75
2023-03-02T13:24:51.986Z,36.75
2023-03-02T13:27:23.622Z,38.67
2023-03-02T13:29:52.960Z,31.42
2023-03-02T13:32:27.796Z,28.83
2023-03-02T13:34:59.215Z,33.37
2023-03-02T13:37:40.256Z,31.05
2023-03-02T13:40:27.376Z,33.88
2023-03-02T13:42:55.242Z,34.25
2023-03-02T13:45:33.121Z,34.13
2023-03-02T13:48:15.385Z,35.95
2023-03-02T13:51:15.827Z,32.72
2023-03-02T13:53:57.205Z,35.95
2023-03-02T13:56:38.283Z,32.65
2023-03-02T13:59:12.640Z,35.05
2023-03-02T14:01:41.572Z,34.47
2023-03-02T14:04:18.421Z,31.27
2023-03-02T14:06:46.131Z,34.17
2023-03-02T14:09:16.688Z,29.20
2023-03-02T14:11:49.250Z,33.42
2023-03-02T14:14:23.454Z,32.95
2023-03-02T14:16:51.749Z,25.55
2023-03-02T14:19:20.171Z,29.67
2023-03-02T14:21:48.092Z,29.35
2023-03-02T14:24:15.794Z,29.55
2023-03-02T14:26:48.847Z,27.00
2023-03-02T14:29:27.506Z,35.88
2023-03-02T14:32:08.355Z,37.35
2023-03-02T14:34:38.790Z,24.83
2023-03-02T14:37:20.127Z,26.67
2023-03-02T14:39:54.954Z,25.25
2023-03-02T14:42:23.630Z,22.48
2023-03-02T14:44:51.808Z,34.65
2023-03-02T14:47:19.862Z,27.45
2023-03-02T14:49:48.915Z,28.88
2023-03-02T14:52:44.110Z,24.75
2023-03-02T14:55:27.178Z,28.20
2023-03-02T14:58:05.173Z,28.63
2023-03-02T15:00:34.936Z,24.38
2023-03-02T15:03:02.153Z,23.42
2023-03-02T15:05:32.580Z,26.58
2023-03-02T15:07:59.942Z,27.23
2023-03-02T15:10:27.277Z,26.33
2023-03-02T15:12:54.559Z,27.30
2023-03-02T15:15:27.937Z,20.00
2023-03-02T15:17:58.558Z,23.35
2023-03-02T15:20:25.687Z,23.65
2023-03-02T15:22:53.463Z,31.85
2023-03-02T15:25:25.984Z,24.77
2023-03-02T15:27:55.523Z,24.33
2023-03-02T15:30:25.015Z,22.30
2023-03-02T15:32:53.301Z,24.70
2023-03-02T15:35:20.699Z,27.00
2023-03-02T15:37:47.908Z,27.27
2023-03-02T15:40:15.357Z,26.58
2023-03-02T15:42:42.660Z,25.92
2023-03-02T15:45:12.614Z,25.73
2023-03-02T15:47:39.819Z,29.05
2023-03-02T15:50:07.701Z,24.73
2023-03-02T15:52:35.107Z,25.95
2023-03-02T15:55:02.494Z,31.88
2023-03-02T15:57:29.606Z,29.73
2023-03-02T15:59:56.972Z,27.38
2023-03-02T16:02:24.187Z,24.30
2023-03-02T16:04:51.345Z,33.33
2023-03-02T16:07:18.516Z,33.45
2023-03-02T16:09:46.377Z,25.95
2023-03-02T16:12:13.716Z,29.73
2023-03-02T16:14:41.186Z,27.25
2023-03-02T16:17:08.541Z,26.15
2023-03-02T16:19:37.468Z,27.10
2023-03-02T16:22:04.945Z,23.58
2023-03-02T16:24:32.137Z,25.40
2023-03-02T16:26:59.569Z,24.38
2023-03-02T16:29:26.945Z,19.50
2023-03-02T16:31:54.274Z,23.30
2023-03-02T16:34:21.788Z,23.42
2023-03-02T16:36:52.797Z,26.25
2023-03-02T16:39:20.615Z,23.67
2023-03-02T16:41:51.560Z,30.75
2023-03-02T16:44:22.984Z,30.77
2023-03-02T16:46:51.576Z,29.30
2023-03-02T16:49:19.278Z,24.73
2023-03-02T16:51:49.718Z,34.03
2023-03-02T16:54:17.739Z,27.67
2023-03-02T16:56:47.399Z,26.55
2023-03-02T16:59:15.460Z,32.92
2023-03-02T17:01:42.974Z,27.88
2023-03-02T17:04:14.098Z,32.50
2023-03-02T17:07:03.453Z,29.80
2023-03-02T17:09:31.872Z,33.22
2023-03-02T17:11:59.476Z,28.08
2023-03-02T17:14:27.826Z,33.78
2023-03-02T17:16:57.329Z,31.45
2023-03-02T17:19:26.918Z,27.45
2023-03-02T17:21:58.360Z,31.13
2023-03-02T17:24:30.424Z,35.53
2023-03-02T17:26:58.213Z,33.45
2023-03-02T17:29:27.745Z,32.25
2023-03-02T17:31:56.215Z,35.10
2023-03-02T17:34:24.088Z,39.25
2023-03-02T17:36:57.177Z,43.47
2023-03-02T17:39:31.390Z,46.42
2023-03-02T17:41:59.478Z,39.42
2023-03-02T17:44:28.072Z,39.97
2023-03-02T17:46:56.196Z,47.08
2023-03-02T17:49:23.778Z,39.55
2023-03-02T17:51:53.403Z,47.83
2023-03-02T17:54:20.787Z,43.85
2023-03-02T17:56:48.482Z,45.65
2023-03-02T17:59:16.032Z,41.30
2023-03-02T18:01:44.307Z,39.92
2023-03-02T18:04:11.737Z,40.95
2023-03-02T18:06:41.045Z,41.13
2023-03-02T18:09:08.733Z,43.30
2023-03-02T18:11:37.559Z,56.70
2023-03-02T18:14:05.531Z,57.28
2023-03-02T18:16:35.549Z,50.67
2023-03-02T18:19:04.382Z,53.28
2023-03-02T18:21:32.802Z,51.45
2023-03-02T18:24:01.633Z,40.83
2023-03-02T18:26:29.747Z,54.05
2023-03-02T18:29:00.544Z,51.05
2023-03-02T18:31:28.923Z,46.35
2023-03-02T18:33:57.261Z,53.28
2023-03-02T18:36:26.009Z,46.33
2023-03-02T18:38:55.981Z,46.63
2023-03-02T18:41:34.254Z,45.75
2023-03-02T18:44:03.589Z,50.83
2023-03-02T18:46:34.155Z,56.53
2023-03-02T18:49:04.411Z,60.95
2023-03-02T18:51:35.195Z,51.63
2023-03-02T18:54:03.623Z,52.28
2023-03-02T18:56:33.839Z,58.28
2023-03-02T18:59:05.326Z,67.68
2023-03-02T19:01:33.831Z,58.38
2023-03-02T19:04:04.124Z,52.13
2023-03-02T19:06:33.785Z,61.35
2023-03-02T19:09:02.878Z,60.50
2023-03-02T19:11:34.211Z,54.38
2023-03-02T19:14:09.886Z,59.38
2023-03-02T19:16:38.650Z,51.92
2023-03-02T19:19:08.745Z,58.83
2023-03-02T19:21:36.618Z,77.88
2023-03-02T19:24:04.794Z,61.85
2023-03-02T19:26:33.405Z,68.32
2023-03-02T19:29:01.458Z,66.15
2023-03-02T19:31:32.441Z,66.85
2023-03-02T19:34:01.224Z,70.05
2023-03-02T19:36:30.270Z,64.07
2023-03-02T19:38:59.628Z,65.55
2023-03-02T19:41:30.942Z,68.57
2023-03-02T19:43:59.619Z,62.75
2023-03-02T19:46:27.997Z,65.13
2023-03-02T19:48:56.324Z,65.65
2023-03-02T19:51:25.373Z,61.70
2023-03-02T19:53:53.754Z,71.38
2023-03-02T19:56:25.521Z,76.20
2023-03-02T19:58:55.838Z,69.07
2023-03-02T20:01:26.799Z,69.00
2023-03-02T20:03:58.263Z,67.03
2023-03-02T20:06:35.027Z,65.55
2023-03-02T20:09:07.189Z,60.50
2023-03-02T20:11:35.828Z,65.15
2023-03-02T20:14:03.902Z,59.63
2023-03-02T20:16:35.819Z,65.80
2023-03-02T20:19:06.035Z,66.95
2023-03-02T20:21:39.194Z,70.10
2023-03-02T20:24:08.455Z,55.03
2023-03-02T20:26:39.397Z,60.33
2023-03-02T20:29:09.667Z,69.50
2023-03-02T20:31:39.668Z,66.43
2023-03-02T20:34:16.519Z,78.20
2023-03-02T20:36:48.541Z,74.03
2023-03-02T20:39:43.607Z,72.55
2023-03-02T20:42:13.355Z,69.82
2023-03-02T20:44:41.618Z,63.60
2023-03-02T20:47:15.211Z,73.93
2023-03-02T20:49:45.457Z,73.97
2023-03-02T20:52:15.187Z,67.78
2023-03-02T20:54:45.381Z,75.47
2023-03-02T20:57:18.011Z,68.25
2023-03-02T20:59:47.781Z,59.47
2023-03-02T21:02:19.832Z,63.95
2023-03-02T21:04:48.251Z,63.83
2023-03-02T21:07:17.795Z,68.10
2023-03-02T21:09:47.623Z,70.60
2023-03-02T21:12:15.621Z,65.87
2023-03-02T21:14:43.879Z,58.30
2023-03-02T21:17:11.989Z,60.28
2023-03-02T21:19:39.724Z,64.67
2023-03-02T21:22:07.609Z,70.00
2023-03-02T21:24:35.903Z,66.63
2023-03-02T21:27:07.942Z,59.10
2023-03-02T21:29:38.580Z,65.93
2023-03-02T21:32:07.959Z,63.30
2023-03-02T21:34:38.388Z,62.93
2023-03-02T21:37:06.510Z,60.90
2023-03-02T21:39:34.023Z,67.50
2023-03-02T21:42:01.743Z,66.13
2023-03-02T21:44:29.434Z,66.40
2023-03-02T21:46:56.871Z,64.40
2023-03-02T21:49:24.025Z,62.93
2023-03-02T21:51:51.753Z,78.77
2023-03-02T21:54:18.895Z,66.20
2023-03-02T21:56:46.232Z,76.57
2023-03-02T21:59:13.441Z,69.47
2023-03-02T22:01:41.237Z,71.60
2023-03-02T22:04:08.730Z,64.97
2023-03-02T22:06:37.650Z,61.73
2023-03-02T22:09:05.319Z,63.50
2023-03-02T22:11:37.918Z,62.57
2023-03-02T22:14:14.474Z,59.47
2023-03-02T22:16:46.458Z,74.23
2023-03-02T22:19:28.410Z,67.30
2023-03-02T22:22:03.123Z,59.17
2023-03-02T22:24:33.656Z,59.47
2023-03-02T22:27:18.137Z,73.30
2023-03-02T22:29:47.699Z,66.07
2023-03-02T22:32:30.997Z,63.67
2023-03-02T22:35:02.895Z,64.50
2023-03-02T22:37:34.459Z,68.50
2023-03-02T22:40:26.403Z,72.70
2023-03-02T22:43:13.867Z,72.20
2023-03-02T22:45:42.203Z,60.47
2023-03-02T22:48:22.855Z,60.43
2023-03-02T22:50:50.595Z,73.73
2023-03-02T22:53:42.703Z,66.07
2023-03-02T22:56:36.916Z,63.67
2023-03-02T22:59:25.605Z,60.80
2023-03-02T23:02:08.605Z,60.23
2023-03-02T23:04:38.111Z,61.70
2023-03-02T23:07:20.783Z,66.77
2023-03-02T23:09:48.818Z,64.53
2023-03-02T23:12:24.289Z,63.53
2023-03-02T23:14:52.296Z,65.45
2023-03-02T23:17:46.913Z,67.03
2023-03-02T23:20:17.099Z,65.73
2023-03-02T23:22:44.537Z,71.30
2023-03-02T23:25:11.969Z,60.27
2023-03-02T23:27:39.201Z,65.60
2023-03-02T23:30:07.151Z,64.50
2023-03-02T23:32:35.109Z,68.30
2023-03-02T23:35:02.867Z,62.30
2023-03-02T23:37:30.072Z,61.87
2023-03-02T23:40:00.462Z,66.50
2023-03-02T23:42:28.045Z,62.03
2023-03-02T23:44:55.964Z,64.20
2023-03-02T23:47:23.210Z,61.57
2023-03-02T23:49:50.563Z,61.83
2023-03-02T23:52:17.671Z,59.50
2023-03-02T23:54:46.237Z,63.93
2023-03-02T23:57:16.390Z,58.87
2023-03-02T23:59:44.617Z,74.93
